Time;durP1;ratioP1;P1;durP2;ratioP2;P2;SDS_P1;SDS_P2;PMS_P1;PMS_P2;Temp;Humidity;BMP_temperature;BMP_pressure;BME280_temperature;BME280_humidity;BME280_pressure;Samples;Min_cycle;Max_cycle;Signal;HPM_P1;HPM_P2
2021/06/06 00:00:15;;;;;;;4.40;3.70;;;15.40;99.90;15.20;96967.00;;;;5039255;28;20229;-67
2021/06/06 00:03:13;;;;;;;4.40;4.00;;;15.50;99.90;15.20;96966.00;;;;5025398;28;20206;-67
2021/06/06 00:06:06;;;;;;;6.80;4.13;;;15.50;99.90;15.20;96956.00;;;;5026068;28;20208;-66
2021/06/06 00:08:55;;;;;;;4.87;3.87;;;15.50;99.90;15.30;96968.00;;;;5033224;28;20719;-66
2021/06/06 00:11:49;;;;;;;4.83;3.57;;;15.50;99.90;15.30;96971.00;;;;5029052;28;20236;-65
2021/06/06 00:14:40;;;;;;;4.27;3.53;;;15.50;99.90;15.20;96966.00;;;;5025924;28;20205;-65
2021/06/06 00:17:28;;;;;;;4.60;4.03;;;15.50;99.90;15.20;96964.00;;;;5026179;28;20205;-67
2021/06/06 00:20:19;;;;;;;3.43;3.17;;;15.60;99.90;15.20;96956.00;;;;5045845;28;20606;-66
2021/06/06 00:23:08;;;;;;;4.83;3.27;;;15.50;99.90;15.10;96964.00;;;;5045478;28;20204;-67
2021/06/06 00:25:57;;;;;;;4.03;3.37;;;15.40;99.90;15.00;96953.00;;;;5032935;28;20227;-67
2021/06/06 00:28:45;;;;;;;4.23;3.93;;;15.40;99.90;15.00;96958.00;;;;5032688;28;20232;-67
2021/06/06 00:31:34;;;;;;;4.10;3.80;;;15.30;99.90;14.90;96960.00;;;;5025291;28;20200;-66
2021/06/06 00:34:24;;;;;;;4.43;3.67;;;15.40;99.90;15.00;96952.00;;;;5025655;28;20675;-65
2021/06/06 00:37:14;;;;;;;4.07;3.67;;;15.30;99.90;14.90;96958.00;;;;5038369;28;20219;-64
2021/06/06 00:40:04;;;;;;;3.90;3.50;;;15.30;99.90;14.80;96954.00;;;;5035884;28;20224;-64
2021/06/06 00:42:53;;;;;;;4.43;4.03;;;15.20;99.90;14.80;96962.00;;;;5037941;28;20217;-66
2021/06/06 00:45:42;;;;;;;5.27;3.60;;;15.20;99.90;14.80;96953.00;;;;5025434;28;20205;-66
2021/06/06 00:48:30;;;;;;;4.40;3.17;;;15.20;99.90;14.70;96959.00;;;;5024286;28;20229;-65
2021/06/06 00:51:26;;;;;;;6.23;3.83;;;15.10;99.90;14.80;96966.00;;;;5033801;28;20201;-65
2021/06/06 00:54:21;;;;;;;4.23;3.87;;;15.10;99.90;14.90;96960.00;;;;5026356;28;20201;-66
2021/06/06 00:57:14;;;;;;;4.10;3.80;;;15.20;99.90;14.70;96951.00;;;;5027141;28;20216;-66
2021/06/06 01:00:10;;;;;;;3.70;3.30;;;15.10;99.90;14.90;96956.00;;;;5024935;28;20221;-66
2021/06/06 01:03:00;;;;;;;4.47;3.17;;;15.10;99.90;14.90;96966.00;;;;5025295;28;20204;-66
2021/06/06 01:05:55;;;;;;;5.30;3.23;;;15.20;99.90;14.90;96954.00;;;;5026224;28;20209;-66
2021/06/06 01:08:43;;;;;;;3.07;2.87;;;15.10;99.90;14.90;96959.00;;;;5040727;28;20227;-65
2021/06/06 01:11:40;;;;;;;6.93;3.20;;;15.20;99.90;14.80;96960.00;;;;5035889;28;20406;-65
2021/06/06 01:14:37;;;;;;;3.73;3.43;;;15.20;99.90;14.80;96949.00;;;;5034507;28;20228;-65
2021/06/06 01:17:34;;;;;;;9.63;3.53;;;15.10;99.90;14.80;96951.00;;;;5025562;28;20579;-65
2021/06/06 01:20:38;;;;;;;5.13;3.03;;;15.10;99.90;14.70;96950.00;;;;5025623;28;20731;-65
2021/06/06 01:23:45;;;;;;;2.90;2.70;;;15.00;99.90;14.70;96950.00;;;;5038855;28;20205;-66
2021/06/06 01:26:41;;;;;;;7.43;3.33;;;15.00;99.90;14.70;96948.00;;;;5025384;28;20219;-67
2021/06/06 01:29:37;;;;;;;4.77;2.63;;;15.00;99.90;14.70;96953.00;;;;5036081;28;20235;-66
2021/06/06 01:32:32;;;;;;;3.37;2.90;;;15.00;99.90;14.60;96941.00;;;;5044383;28;20216;-67
2021/06/06 01:35:26;;;;;;;3.47;2.60;;;15.10;99.90;14.50;96943.00;;;;5026043;28;20205;-66
2021/06/06 01:38:19;;;;;;;5.43;3.50;;;14.90;99.90;14.50;96947.00;;;;5025790;28;20213;-66
2021/06/06 01:41:11;;;;;;;4.20;3.27;;;14.90;99.90;14.50;96945.00;;;;5024672;28;20220;-65
2021/06/06 01:44:05;;;;;;;4.57;2.83;;;14.90;99.90;14.50;96943.00;;;;5026154;28;20696;-65
2021/06/06 01:46:59;;;;;;;3.20;2.90;;;14.80;99.90;14.40;96953.00;;;;5024431;28;20687;-65
2021/06/06 01:49:52;;;;;;;3.73;2.90;;;14.80;99.90;14.50;96950.00;;;;5037858;28;20707;-65
2021/06/06 01:52:43;;;;;;;3.53;3.03;;;14.80;99.90;14.50;96957.00;;;;5025294;28;20209;-66
2021/06/06 01:55:33;;;;;;;3.63;3.33;;;14.80;99.90;14.50;96953.00;;;;5025954;28;20713;-64
2021/06/06 01:58:23;;;;;;;5.30;3.27;;;14.80;99.90;14.60;96951.00;;;;5034324;28;20208;-66
2021/06/06 02:01:18;;;;;;;3.00;2.80;;;14.80;99.90;14.60;96952.00;;;;5038996;28;20696;-66
2021/06/06 02:04:08;;;;;;;5.80;3.43;;;14.90;99.90;14.60;96947.00;;;;5028146;28;20212;-66
2021/06/06 02:07:03;;;;;;;5.47;3.20;;;14.90;99.90;14.60;96947.00;;;;5028481;28;20201;-65
2021/06/06 02:09:57;;;;;;;9.60;3.10;;;14.90;99.90;14.60;96943.00;;;;5028617;28;20240;-64
2021/06/06 02:12:48;;;;;;;3.00;2.70;;;14.90;99.90;14.70;96951.00;;;;5026785;28;20209;-65
2021/06/06 02:15:39;;;;;;;4.40;3.07;;;14.90;99.90;14.60;96950.00;;;;5030226;28;20209;-65
2021/06/06 02:18:30;;;;;;;5.80;3.23;;;14.90;99.90;14.70;96954.00;;;;5027043;28;20699;-67
2021/06/06 02:21:19;;;;;;;3.37;2.97;;;14.90;99.90;14.70;96958.00;;;;5026992;28;20201;-66
2021/06/06 02:24:09;;;;;;;3.60;2.47;;;14.90;99.90;14.70;96955.00;;;;5028450;28;20205;-67
2021/06/06 02:27:02;;;;;;;4.03;3.33;;;14.90;99.90;14.70;96962.00;;;;5028835;28;20209;-66
2021/06/06 02:30:06;;;;;;;3.47;3.07;;;15.00;99.90;14.60;96958.00;;;;5034765;28;20240;-64
2021/06/06 02:33:01;;;;;;;3.63;3.27;;;15.00;99.90;14.60;96956.00;;;;5033705;28;20212;-66
2021/06/06 02:35:56;;;;;;;3.17;2.53;;;14.90;99.90;14.70;96953.00;;;;5032735;28;20209;-65
2021/06/06 02:38:51;;;;;;;2.43;2.23;;;14.90;99.90;14.70;96956.00;;;;5028132;28;20205;-66
2021/06/06 02:41:46;;;;;;;2.30;1.93;;;14.90;99.90;14.70;96958.00;;;;5026948;28;20213;-64
2021/06/06 02:44:42;;;;;;;4.47;3.90;;;15.00;99.90;14.80;96952.00;;;;5027890;28;20236;-64
2021/06/06 02:47:35;;;;;;;3.80;2.57;;;15.00;99.90;14.80;96959.00;;;;5026858;28;20209;-65
2021/06/06 02:50:29;;;;;;;6.27;2.67;;;15.00;99.90;14.70;96953.00;;;;5038098;28;20216;-64
2021/06/06 02:53:24;;;;;;;3.40;3.10;;;15.00;99.90;14.70;96953.00;;;;5032960;28;20205;-65
2021/06/06 02:56:17;;;;;;;4.47;3.33;;;15.00;99.90;14.70;96953.00;;;;5036382;28;20702;-64
2021/06/06 02:59:13;;;;;;;5.93;3.60;;;15.00;99.90;14.70;96950.00;;;;5027772;28;20693;-65
2021/06/06 03:02:07;;;;;;;3.47;2.40;;;15.00;99.90;14.80;96955.00;;;;5027870;28;20216;-66
2021/06/06 03:05:00;;;;;;;2.93;2.73;;;15.00;99.90;14.70;96944.00;;;;5032493;28;20232;-64
2021/06/06 03:07:53;;;;;;;5.17;2.73;;;15.00;99.90;14.60;96949.00;;;;5036329;28;20216;-65
2021/06/06 03:10:44;;;;;;;4.00;3.20;;;15.00;99.90;14.60;96952.00;;;;5017829;28;20261;-66
2021/06/06 03:13:37;;;;;;;4.73;3.53;;;15.00;99.90;14.60;96939.00;;;;5045929;28;20216;-65
2021/06/06 03:16:28;;;;;;;3.40;3.10;;;16.20;99.90;14.70;96942.00;;;;5026821;28;20205;-66
2021/06/06 03:19:17;;;;;;;8.50;2.73;;;15.00;99.90;14.70;96943.00;;;;5045985;28;20221;-65
2021/06/06 03:22:12;;;;;;;4.27;3.00;;;15.00;99.90;14.80;96936.00;;;;5045755;28;20863;-65
2021/06/06 03:25:06;;;;;;;5.57;2.77;;;15.00;99.90;14.70;96944.00;;;;5043404;28;20196;-66
2021/06/06 03:27:56;;;;;;;3.27;2.43;;;15.00;99.90;14.60;96945.00;;;;5039802;28;20231;-64
2021/06/06 03:30:47;;;;;;;3.00;2.70;;;15.00;99.90;14.60;96948.00;;;;5042148;28;20229;-64
2021/06/06 03:33:47;;;;;;;2.53;2.33;;;15.00;99.90;14.70;96948.00;;;;5026293;28;20664;-66
2021/06/06 03:36:39;;;;;;;2.37;2.23;;;15.00;99.90;14.70;96948.00;;;;5025387;28;20202;-66
2021/06/06 03:39:28;;;;;;;2.60;2.40;;;15.00;99.90;14.70;96942.00;;;;5026093;28;20613;-67
2021/06/06 03:42:19;;;;;;;3.83;3.00;;;15.00;99.90;14.80;96950.00;;;;5026220;28;20204;-66
2021/06/06 03:45:13;;;;;;;2.70;2.50;;;15.00;99.90;14.90;96953.00;;;;5026608;28;20205;-65
2021/06/06 03:48:02;;;;;;;5.77;3.20;;;15.10;99.90;14.90;96949.00;;;;5018087;28;20233;-65
2021/06/06 03:50:52;;;;;;;3.10;2.80;;;15.10;99.90;14.90;96953.00;;;;5044879;28;20220;-65
2021/06/06 03:53:40;;;;;;;3.93;2.53;;;15.10;99.90;14.80;96959.00;;;;5029158;28;20206;-65
2021/06/06 03:56:29;;;;;;;2.80;2.27;;;15.10;99.90;14.80;96949.00;;;;5039125;28;20193;-65
2021/06/06 03:59:18;;;;;;;3.17;2.27;;;15.10;99.90;14.80;96957.00;;;;5046896;28;20349;-65
2021/06/06 04:02:08;;;;;;;2.67;2.27;;;15.10;99.90;14.80;96947.00;;;;5039176;28;20197;-64
2021/06/06 04:04:56;;;;;;;3.13;2.83;;;15.10;99.90;14.90;96940.00;;;;5044841;28;20213;-64
2021/06/06 04:07:44;;;;;;;3.60;2.40;;;15.10;99.90;15.00;96943.00;;;;5045622;28;20201;-64
2021/06/06 04:10:34;;;;;;;3.87;2.10;;;15.20;99.90;15.00;96946.00;;;;5045088;28;20782;-65
2021/06/06 04:13:23;;;;;;;4.40;2.67;;;15.20;99.90;15.00;96949.00;;;;5047949;28;20224;-65
2021/06/06 04:16:12;;;;;;;2.60;2.30;;;15.20;99.90;15.00;96948.00;;;;5039103;28;20601;-66
2021/06/06 04:19:02;;;;;;;2.50;2.27;;;15.30;99.90;15.10;96951.00;;;;5026382;28;20229;-65
2021/06/06 04:21:50;;;;;;;2.27;2.10;;;15.30;99.90;15.20;96947.00;;;;5031008;28;20213;-65
2021/06/06 04:24:39;;;;;;;5.13;2.67;;;15.30;99.90;15.20;96949.00;;;;5018422;28;20209;-65
2021/06/06 04:27:27;;;;;;;2.70;2.23;;;15.40;99.90;15.10;96945.00;;;;5024747;28;20208;-66
2021/06/06 04:30:16;;;;;;;2.90;2.37;;;15.40;99.90;15.00;96954.00;;;;5028943;28;20232;-64
2021/06/06 04:33:07;;;;;;;2.87;2.53;;;15.40;99.90;15.00;96955.00;;;;5025169;28;20213;-62
2021/06/06 04:35:57;;;;;;;2.73;2.27;;;15.40;99.90;15.00;96962.00;;;;5027314;28;20727;-65
2021/06/06 04:38:47;;;;;;;2.70;2.50;;;15.30;99.90;15.10;96949.00;;;;5023903;28;20620;-66
2021/06/06 04:41:36;;;;;;;3.00;2.70;;;15.40;99.90;15.20;96948.00;;;;5025090;28;20197;-66
2021/06/06 04:44:24;;;;;;;4.23;2.83;;;15.40;99.90;15.30;96953.00;;;;5021040;28;20201;-66
2021/06/06 04:47:13;;;;;;;4.30;2.83;;;15.40;99.90;15.30;96952.00;;;;5024588;28;20214;-65
2021/06/06 04:50:02;;;;;;;5.67;3.07;;;15.50;99.90;15.30;96955.00;;;;5027750;28;20225;-64
2021/06/06 04:52:52;;;;;;;3.13;2.60;;;15.50;99.90;15.30;96948.00;;;;5034931;28;20197;-65
2021/06/06 04:55:40;;;;;;;3.27;2.97;;;15.50;99.90;15.30;96943.00;;;;5035906;28;20216;-66
2021/06/06 04:58:31;;;;;;;2.83;2.63;;;15.60;99.90;15.40;96953.00;;;;5024159;28;20201;-65
2021/06/06 05:01:20;;;;;;;4.10;2.30;;;15.60;99.90;15.40;96952.00;;;;5024130;28;20201;-65
2021/06/06 05:04:08;;;;;;;2.10;2.00;;;15.60;99.90;15.40;96957.00;;;;5024685;28;20205;-66
2021/06/06 05:06:56;;;;;;;5.53;2.50;;;15.60;99.90;15.50;96957.00;;;;5024970;28;20209;-66
2021/06/06 05:09:46;;;;;;;3.73;1.93;;;15.60;99.90;15.40;96956.00;;;;5023543;28;20228;-65
2021/06/06 05:12:35;;;;;;;2.73;2.10;;;15.60;99.90;15.50;96956.00;;;;5025204;28;20582;-67
2021/06/06 05:15:24;;;;;;;2.07;1.87;;;15.70;99.90;15.60;96952.00;;;;5037477;28;20211;-64
2021/06/06 05:18:13;;;;;;;4.17;2.40;;;15.70;99.90;15.60;96955.00;;;;5030961;28;20267;-65
2021/06/06 05:21:03;;;;;;;1.97;1.77;;;15.80;99.90;15.70;96954.00;;;;5034954;28;20211;-65
2021/06/06 05:23:52;;;;;;;4.00;2.80;;;15.80;99.90;15.60;96959.00;;;;5024670;28;20205;-66
2021/06/06 05:26:41;;;;;;;4.97;3.13;;;15.60;99.90;15.60;96957.00;;;;5025134;28;20216;-65
2021/06/06 05:29:30;;;;;;;3.40;3.10;;;15.80;99.90;15.70;96962.00;;;;5038536;28;20737;-65
2021/06/06 05:32:18;;;;;;;6.50;3.27;;;15.80;99.90;15.70;96964.00;;;;5023877;28;20221;-65
2021/06/06 05:35:09;;;;;;;3.97;2.53;;;15.90;99.90;15.60;96953.00;;;;5029536;28;20201;-65
2021/06/06 05:37:58;;;;;;;3.57;2.90;;;15.90;99.90;15.70;96968.00;;;;5028921;28;20237;-66
2021/06/06 05:40:46;;;;;;;4.30;1.97;;;15.90;99.90;15.60;96969.00;;;;5026855;28;20221;-65
2021/06/06 05:43:37;;;;;;;4.00;1.87;;;15.90;99.90;15.70;96977.00;;;;5029488;28;20232;-64
2021/06/06 05:46:25;;;;;;;3.37;1.93;;;15.90;99.90;15.70;96975.00;;;;5039587;28;20200;-66
2021/06/06 05:49:14;;;;;;;2.97;2.23;;;16.00;99.90;15.70;96974.00;;;;5035405;28;20228;-66
2021/06/06 05:52:03;;;;;;;1.80;1.70;;;16.00;99.90;15.80;96978.00;;;;5047135;28;20787;-66
2021/06/06 05:54:51;;;;;;;2.70;1.97;;;16.00;99.90;15.80;96979.00;;;;5046800;28;20704;-66
2021/06/06 05:57:40;;;;;;;1.50;1.40;;;16.00;99.90;15.80;96979.00;;;;5041569;28;20570;-65
2021/06/06 06:00:32;;;;;;;1.87;1.77;;;16.00;99.90;15.80;96983.00;;;;5039948;28;20582;-66
2021/06/06 06:03:21;;;;;;;2.20;1.90;;;16.00;99.90;15.80;96979.00;;;;5038988;28;20692;-64
2021/06/06 06:06:09;;;;;;;2.07;1.97;;;16.00;99.90;15.90;96990.00;;;;5037434;28;20781;-66
2021/06/06 06:08:58;;;;;;;1.90;1.80;;;16.00;99.90;15.90;96996.00;;;;5031834;28;20233;-66
2021/06/06 06:11:46;;;;;;;2.30;1.80;;;16.10;99.90;15.80;96989.00;;;;5028345;28;20201;-66
2021/06/06 06:14:34;;;;;;;2.30;1.90;;;16.10;99.90;15.70;97000.00;;;;5028945;28;20210;-66
2021/06/06 06:17:24;;;;;;;1.70;1.60;;;16.00;99.90;15.80;97002.00;;;;5028084;28;20224;-66
2021/06/06 06:20:17;;;;;;;1.70;1.60;;;16.10;99.90;15.80;97000.00;;;;5037317;28;20397;-66
2021/06/06 06:23:06;;;;;;;3.63;2.03;;;16.10;99.90;15.90;96998.00;;;;5041638;28;20201;-66
2021/06/06 06:25:55;;;;;;;4.37;1.53;;;16.10;99.90;15.90;97002.00;;;;5028916;28;20205;-66
2021/06/06 06:28:46;;;;;;;1.70;1.60;;;16.10;99.90;15.90;96993.00;;;;5036552;28;20552;-67
2021/06/06 06:31:36;;;;;;;3.70;2.07;;;16.10;99.90;15.80;97001.00;;;;5042050;28;20208;-65
2021/06/06 06:34:26;;;;;;;2.83;1.67;;;16.10;99.90;15.80;96997.00;;;;5051970;28;20691;-66
2021/06/06 06:37:14;;;;;;;2.10;1.90;;;16.10;99.90;15.90;96996.00;;;;5042600;28;20210;-66
2021/06/06 06:40:05;;;;;;;1.73;1.40;;;16.10;99.90;16.00;97006.00;;;;5027721;28;21115;-66
2021/06/06 06:42:55;;;;;;;3.27;1.40;;;16.10;99.90;15.90;97005.00;;;;5028171;28;20906;-64
2021/06/06 06:45:44;;;;;;;1.67;1.57;;;16.20;99.90;15.80;97010.00;;;;5050091;28;20208;-67
2021/06/06 06:48:33;;;;;;;2.80;2.60;;;16.10;99.90;15.70;97016.00;;;;5041363;28;20589;-65
2021/06/06 06:51:25;;;;;;;3.97;2.10;;;16.10;99.90;15.90;97022.00;;;;5042131;28;20212;-65
2021/06/06 06:54:15;;;;;;;4.13;2.87;;;16.10;99.90;15.80;97018.00;;;;5055732;28;20695;-66
2021/06/06 06:57:04;;;;;;;2.83;2.53;;;15.80;99.90;15.90;97020.00;;;;5046268;28;20228;-66
2021/06/06 06:59:52;;;;;;;3.10;2.50;;;16.10;99.90;15.90;97021.00;;;;5042721;28;20897;-66
2021/06/06 07:02:41;;;;;;;2.03;1.83;;;16.10;99.90;15.90;97021.00;;;;5046113;28;20199;-66
2021/06/06 07:05:30;;;;;;;3.77;1.90;;;16.10;99.90;16.00;97011.00;;;;5046271;28;20197;-66
2021/06/06 07:08:26;;;;;;;2.67;2.40;;;16.10;99.90;16.10;97016.00;;;;5043928;28;20212;-66
2021/06/06 07:11:17;;;;;;;2.60;2.40;;;16.20;99.90;16.10;97011.00;;;;5042636;28;20208;-66
2021/06/06 07:14:06;;;;;;;2.10;1.97;;;16.20;99.90;16.30;97016.00;;;;5048273;28;20296;-66
2021/06/06 07:16:54;;;;;;;3.47;2.10;;;16.30;99.90;16.10;97007.00;;;;5033872;28;20598;-64
2021/06/06 07:19:42;;;;;;;1.57;1.47;;;16.30;99.90;16.30;97025.00;;;;5028471;28;20856;-66
2021/06/06 07:22:31;;;;;;;3.20;2.30;;;16.40;99.90;16.20;97014.00;;;;5026096;28;20564;-66
2021/06/06 07:25:24;;;;;;;2.20;2.10;;;16.40;99.90;16.30;97021.00;;;;5028138;28;20201;-65
2021/06/06 07:28:16;;;;;;;3.43;2.10;;;16.40;99.90;16.40;97011.00;;;;5038210;28;20205;-65
2021/06/06 07:31:06;;;;;;;3.87;2.13;;;16.50;99.90;16.60;97013.00;;;;5020000;28;20630;-66
2021/06/06 07:33:55;;;;;;;4.60;2.03;;;16.60;99.90;16.60;97015.00;;;;5056182;28;20286;-65
2021/06/06 07:36:44;;;;;;;2.10;1.90;;;16.60;99.90;16.70;97013.00;;;;5053767;28;20664;-65
2021/06/06 07:39:32;;;;;;;2.23;2.03;;;16.70;99.90;16.80;97014.00;;;;5051050;28;20221;-66
2021/06/06 07:42:22;;;;;;;1.93;1.77;;;16.80;99.90;16.80;97018.00;;;;5032328;28;20201;-65
2021/06/06 07:45:15;;;;;;;1.90;1.80;;;16.80;99.90;16.70;97010.00;;;;5029772;28;20205;-65
2021/06/06 07:48:04;;;;;;;2.03;1.87;;;16.90;99.90;16.80;97016.00;;;;5032516;28;20212;-66
2021/06/06 07:50:55;;;;;;;5.23;2.50;;;16.90;99.90;16.80;97018.00;;;;5047758;28;20225;-64
2021/06/06 07:53:43;;;;;;;3.37;2.07;;;17.00;99.90;16.80;97022.00;;;;5047415;28;20586;-65
2021/06/06 07:56:32;;;;;;;2.10;1.90;;;17.00;99.90;16.70;97029.00;;;;5053204;28;20215;-64
2021/06/06 07:59:22;;;;;;;2.00;1.80;;;17.00;99.90;16.90;97031.00;;;;5046592;28;20243;-64
2021/06/06 08:02:10;;;;;;;3.13;1.53;;;17.00;99.90;16.90;97031.00;;;;5046597;28;20213;-61
2021/06/06 08:04:59;;;;;;;1.80;1.70;;;17.00;99.90;17.00;97035.00;;;;5041207;28;20193;-62
2021/06/06 08:07:48;;;;;;;3.00;1.53;;;17.10;99.90;17.20;97030.00;;;;5045952;28;20572;-62
2021/06/06 08:10:40;;;;;;;2.97;1.90;;;17.10;99.90;17.30;97029.00;;;;5028191;28;20232;-63
2021/06/06 08:13:30;;;;;;;1.87;1.40;;;17.20;99.90;17.50;97025.00;;;;5041148;28;20209;-62
2021/06/06 08:16:20;;;;;;;2.23;1.83;;;17.40;99.90;17.60;97029.00;;;;5017249;28;20201;-65
2021/06/06 08:19:09;;;;;;;3.53;2.03;;;17.50;99.90;17.50;97024.00;;;;5009047;28;20331;-63
2021/06/06 08:21:58;;;;;;;1.90;1.73;;;17.60;99.90;17.60;97020.00;;;;5007694;28;20204;-63
2021/06/06 08:24:46;;;;;;;2.00;1.80;;;17.60;99.90;17.70;97018.00;;;;5017981;28;20208;-65
2021/06/06 08:27:35;;;;;;;2.17;1.97;;;17.70;99.90;17.60;97020.00;;;;5011613;28;20279;-63
2021/06/06 08:30:29;;;;;;;2.17;1.83;;;17.80;99.90;17.60;97022.00;;;;5022316;28;20247;-66
2021/06/06 08:33:22;;;;;;;3.30;1.70;;;18.10;99.90;17.70;97024.00;;;;5020049;28;20201;-64
2021/06/06 08:36:16;;;;;;;1.97;1.73;;;17.80;99.90;17.70;97027.00;;;;5012672;28;20881;-63
2021/06/06 08:39:09;;;;;;;2.33;1.80;;;17.80;99.90;17.90;97017.00;;;;5018243;28;20235;-64
2021/06/06 08:42:01;;;;;;;1.53;1.40;;;17.90;99.90;17.90;97022.00;;;;5012445;28;20213;-63
2021/06/06 08:45:06;;;;;;;2.00;1.60;;;18.00;99.90;18.10;97025.00;;;;5017702;28;20277;-63
2021/06/06 08:47:56;;;;;;;1.63;1.53;;;18.00;99.90;18.20;97031.00;;;;5019916;28;20208;-64
2021/06/06 08:50:50;;;;;;;1.87;1.73;;;18.20;99.90;18.30;97029.00;;;;5019776;28;20639;-64
2021/06/06 08:53:49;;;;;;;1.80;1.70;;;18.30;99.90;18.00;97031.00;;;;5022779;28;20196;-64
2021/06/06 08:56:39;;;;;;;1.60;1.50;;;18.30;99.90;18.20;97041.00;;;;5018684;28;20193;-64
2021/06/06 08:59:34;;;;;;;3.53;1.80;;;18.30;99.90;18.10;97048.00;;;;5022576;28;20268;-65
2021/06/06 09:02:31;;;;;;;2.47;2.00;;;18.30;99.90;18.10;97061.00;;;;5024040;28;20202;-64
2021/06/06 09:05:28;;;;;;;1.63;1.43;;;18.30;99.90;18.00;97068.00;;;;5024515;28;20213;-63
2021/06/06 09:08:23;;;;;;;3.90;2.07;;;18.30;99.90;17.80;97062.00;;;;5025268;28;20200;-64
2021/06/06 09:11:15;;;;;;;2.63;1.77;;;18.20;99.90;17.90;97071.00;;;;5010714;28;20218;-65
2021/06/06 09:14:04;;;;;;;1.90;1.80;;;18.20;99.90;17.90;97072.00;;;;5023221;28;20212;-64
2021/06/06 09:17:06;;;;;;;4.37;2.00;;;18.10;99.90;17.90;97073.00;;;;5033624;28;20208;-64
2021/06/06 09:19:56;;;;;;;2.03;1.87;;;18.10;99.90;17.90;97082.00;;;;5044058;28;20228;-64
2021/06/06 09:22:45;;;;;;;1.70;1.60;;;18.10;99.90;17.90;97086.00;;;;5051280;28;20196;-65
2021/06/06 09:25:37;;;;;;;2.10;1.73;;;18.10;99.90;17.90;97083.00;;;;5043483;28;20207;-65
2021/06/06 09:28:29;;;;;;;1.83;1.73;;;18.00;99.90;17.80;97086.00;;;;5033650;28;20587;-64
2021/06/06 09:31:23;;;;;;;2.53;1.90;;;18.00;99.90;17.90;97097.00;;;;5044598;28;20235;-64
2021/06/06 09:34:20;;;;;;;3.40;2.30;;;18.00;99.90;17.80;97099.00;;;;5048226;28;20211;-66
2021/06/06 09:37:15;;;;;;;3.33;2.10;;;18.00;99.90;17.90;97089.00;;;;5040431;28;20201;-66
2021/06/06 09:40:11;;;;;;;3.30;2.27;;;18.00;99.90;17.90;97096.00;;;;5042669;28;20232;-65
2021/06/06 09:43:01;;;;;;;2.03;1.90;;;18.00;99.90;17.80;97095.00;;;;5033144;28;20559;-64
2021/06/06 09:45:50;;;;;;;2.27;2.07;;;18.00;99.90;17.70;97094.00;;;;5041581;28;20209;-65
2021/06/06 09:48:41;;;;;;;2.00;1.80;;;18.00;99.90;17.70;97092.00;;;;5034432;28;20204;-65
2021/06/06 09:51:32;;;;;;;2.43;2.07;;;17.90;99.90;17.90;97094.00;;;;5030138;28;20229;-64
2021/06/06 09:54:30;;;;;;;4.10;3.80;;;17.90;99.90;17.80;97094.00;;;;5035030;28;20200;-65
2021/06/06 09:57:26;;;;;;;2.20;2.00;;;18.00;99.90;17.90;97094.00;;;;5039521;28;20585;-65
2021/06/06 10:00:34;;;;;;;2.60;2.40;;;18.00;99.90;17.90;97098.00;;;;5042640;28;20635;-65
2021/06/06 10:03:32;;;;;;;1.70;1.60;;;18.00;99.90;17.80;97098.00;;;;5039266;28;20197;-65
2021/06/06 10:06:28;;;;;;;2.40;2.20;;;18.00;99.90;17.80;97099.00;;;;5040622;28;20197;-65
2021/06/06 10:09:30;;;;;;;1.87;1.77;;;18.00;99.90;17.80;97104.00;;;;5043872;28;20714;-65
2021/06/06 10:12:29;;;;;;;3.77;2.30;;;18.00;99.90;17.80;97095.00;;;;5044568;28;20208;-65
2021/06/06 10:15:34;;;;;;;3.13;2.93;;;18.00;99.90;17.80;97103.00;;;;5044611;28;20204;-67
2021/06/06 10:18:28;;;;;;;6.00;3.03;;;17.90;99.90;17.90;97103.00;;;;5046062;28;20266;-66
2021/06/06 10:21:20;;;;;;;3.57;2.73;;;17.90;99.90;17.90;97103.00;;;;5035768;28;20197;-64
2021/06/06 10:24:13;;;;;;;2.90;2.40;;;18.00;99.90;17.90;97107.00;;;;5027774;28;20216;-67
2021/06/06 10:27:11;;;;;;;4.23;2.43;;;18.00;99.90;18.00;97108.00;;;;5028773;28;20554;-67
2021/06/06 10:30:06;;;;;;;2.50;2.30;;;18.00;99.90;18.00;97110.00;;;;5038088;28;20224;-64
2021/06/06 10:33:04;;;;;;;2.73;2.53;;;18.00;99.90;17.90;97111.00;;;;5037940;28;20215;-66
2021/06/06 10:35:52;;;;;;;2.33;2.13;;;18.10;99.90;18.00;97109.00;;;;5045227;28;20195;-66
2021/06/06 10:38:42;;;;;;;2.53;2.33;;;18.10;99.90;18.10;97117.00;;;;5037526;28;20201;-66
2021/06/06 10:41:37;;;;;;;2.20;2.00;;;18.10;99.90;18.20;97115.00;;;;5033560;28;20605;-65
2021/06/06 10:44:32;;;;;;;3.20;2.90;;;18.20;99.90;18.20;97116.00;;;;5041629;28;20201;-66
2021/06/06 10:47:26;;;;;;;6.70;2.50;;;18.20;99.90;18.20;97115.00;;;;5042134;28;20201;-64
2021/06/06 10:50:29;;;;;;;2.50;2.23;;;18.30;99.90;18.20;97122.00;;;;5044010;28;20232;-67
2021/06/06 10:53:22;;;;;;;3.67;1.90;;;18.30;99.90;18.00;97124.00;;;;5047777;28;20203;-65
2021/06/06 10:56:13;;;;;;;3.43;2.37;;;18.30;99.90;18.10;97121.00;;;;5052073;28;20243;-65
2021/06/06 10:59:06;;;;;;;2.37;2.10;;;18.30;99.90;18.10;97124.00;;;;5049395;28;20226;-65
2021/06/06 11:01:57;;;;;;;2.00;1.80;;;18.20;99.90;18.00;97121.00;;;;5061448;28;20572;-66
2021/06/06 11:04:52;;;;;;;1.47;1.37;;;18.20;99.90;18.00;97121.00;;;;5039356;28;20216;-65
2021/06/06 11:07:46;;;;;;;3.33;1.93;;;18.20;99.90;18.00;97114.00;;;;5040224;28;20224;-66
2021/06/06 11:10:37;;;;;;;2.17;1.97;;;18.20;99.90;18.00;97109.00;;;;5040916;28;20237;-65
2021/06/06 11:13:34;;;;;;;1.73;1.60;;;18.20;99.90;18.00;97116.00;;;;5026514;28;20220;-65
2021/06/06 11:16:37;;;;;;;2.27;1.70;;;18.20;99.90;18.00;97112.00;;;;5028311;28;20612;-65
2021/06/06 11:19:33;;;;;;;1.87;1.77;;;18.20;99.90;18.10;97111.00;;;;5027132;28;20224;-64
2021/06/06 11:22:34;;;;;;;1.80;1.40;;;18.20;99.90;18.10;97114.00;;;;5041697;28;20231;-65
2021/06/06 11:25:39;;;;;;;1.60;1.30;;;18.20;99.90;18.10;97118.00;;;;5032394;28;20204;-63
2021/06/06 11:28:35;;;;;;;1.43;1.33;;;18.20;99.90;18.00;97119.00;;;;5036540;28;20196;-62
2021/06/06 11:31:30;;;;;;;1.57;1.47;;;18.20;99.90;18.10;97108.00;;;;5032193;28;20224;-65
2021/06/06 11:34:28;;;;;;;1.83;1.67;;;18.20;99.90;18.10;97110.00;;;;5042153;28;20212;-64
2021/06/06 11:37:37;;;;;;;2.50;2.30;;;18.20;99.90;18.10;97114.00;;;;5031526;28;20210;-64
2021/06/06 11:40:40;;;;;;;2.03;1.30;;;18.20;99.90;18.00;97093.00;;;;5037691;28;20217;-65
2021/06/06 11:43:33;;;;;;;1.80;1.43;;;18.20;99.90;17.90;97100.00;;;;5026419;28;20208;-64
2021/06/06 11:46:29;;;;;;;1.67;1.57;;;18.20;99.90;17.90;97103.00;;;;5027474;28;20259;-64
2021/06/06 11:49:34;;;;;;;1.57;1.47;;;18.10;99.90;17.80;97090.00;;;;5029112;28;20225;-65
2021/06/06 11:52:34;;;;;;;1.67;1.40;;;18.20;99.90;17.80;97095.00;;;;5039737;28;20598;-64
2021/06/06 11:55:29;;;;;;;1.67;1.40;;;18.10;99.90;17.80;97091.00;;;;5045033;28;20211;-65
2021/06/06 11:58:23;;;;;;;1.43;1.30;;;18.00;99.90;17.80;97095.00;;;;5034084;28;20201;-64
2021/06/06 12:01:22;;;;;;;5.50;1.30;;;18.00;99.90;17.70;97085.00;;;;5025313;28;20610;-64
2021/06/06 12:04:12;;;;;;;1.70;1.40;;;17.90;99.90;17.70;97093.00;;;;5026171;28;20711;-65
2021/06/06 12:07:11;;;;;;;2.03;1.73;;;17.90;99.90;17.70;97097.00;;;;5026855;28;20217;-64
2021/06/06 12:10:01;;;;;;;1.73;1.40;;;17.90;99.90;17.60;97091.00;;;;5041056;28;20567;-64
2021/06/06 12:12:53;;;;;;;1.40;1.30;;;17.90;99.90;17.60;97078.00;;;;5027186;28;20205;-64
2021/06/06 12:15:43;;;;;;;1.20;1.10;;;17.80;99.90;17.70;97076.00;;;;5045607;28;20205;-64
2021/06/06 12:18:32;;;;;;;4.10;1.50;;;17.80;99.90;17.90;97074.00;;;;5043691;28;20201;-65
2021/06/06 12:21:23;;;;;;;1.50;1.40;;;17.80;99.90;17.90;97077.00;;;;5042846;28;20201;-64
2021/06/06 12:24:18;;;;;;;1.13;1.03;;;18.00;99.90;18.00;97079.00;;;;5041635;28;20266;-65
2021/06/06 12:27:17;;;;;;;2.03;1.70;;;18.00;99.90;17.90;97075.00;;;;5036604;28;20217;-64
2021/06/06 12:30:18;;;;;;;1.60;1.50;;;18.00;99.90;17.90;97069.00;;;;5026054;28;20239;-65
2021/06/06 12:33:31;;;;;;;1.33;1.23;;;18.10;99.90;18.20;97063.00;;;;5042605;28;20204;-64
2021/06/06 12:36:27;;;;;;;1.60;1.50;;;18.10;99.90;18.40;97066.00;;;;5041943;28;20205;-65
2021/06/06 12:39:18;;;;;;;0.80;0.80;;;18.20;99.90;18.50;97062.00;;;;5046915;28;20570;-65
2021/06/06 12:42:09;;;;;;;1.00;0.90;;;18.40;99.90;18.60;97061.00;;;;5043941;28;20201;-66
2021/06/06 12:45:04;;;;;;;3.13;1.50;;;18.40;99.90;18.80;97052.00;;;;5041604;28;20204;-65